Time,TemperatureF,DewpointF,PressureIn,WindDirection,WindDirectionDegrees,WindSpeedMPH,WindSpeedGustMPH,Humidity,HourlyPrecipIn,Conditions,Clouds,dailyrainin,SoftwareType,DateUTC
2013-02-12 00:01:00,28.4,23.4,-100.00,WNW,295,0.0,0.0,81,0.00,,,0.00,meteohub,2013-02-12 06:01:00,
2013-02-12 00:06:00,28.4,23.4,-100.00,WNW,295,0.0,0.0,81,0.00,,,0.00,meteohub,2013-02-12 06:06:00,
2013-02-12 00:11:00,28.2,23.4,-100.00,WNW,295,0.0,1.0,82,0.00,,,0.00,meteohub,2013-02-12 06:11:00,
2013-02-12 00:17:00,28.4,23.5,-100.00,WNW,294,0.0,1.0,82,0.00,,,0.00,meteohub,2013-02-12 06:17:00,
2013-02-12 00:22:00,28.6,23.7,-100.00,WNW,294,0.0,3.0,82,0.00,,,0.00,meteohub,2013-02-12 06:22:00,
2013-02-12 00:27:00,28.6,23.7,-100.00,WNW,293,2.0,3.0,82,0.00,,,0.00,meteohub,2013-02-12 06:27:00,
2013-02-12 00:32:00,28.8,23.9,-100.00,WNW,293,0.0,2.0,82,0.00,,,0.00,meteohub,2013-02-12 06:32:00,
2013-02-12 00:37:00,28.8,23.7,-100.00,WNW,292,0.0,2.0,81,0.00,,,0.00,meteohub,2013-02-12 06:37:00,
2013-02-12 00:42:00,28.6,23.5,-100.00,WNW,293,0.0,2.0,81,0.00,,,0.00,meteohub,2013-02-12 06:42:00,
2013-02-12 00:47:00,28.6,23.5,-100.00,WNW,293,0.0,1.0,81,0.00,,,0.00,meteohub,2013-02-12 06:47:00,
2013-02-12 00:52:00,28.2,23.4,-100.00,WNW,292,0.0,1.0,82,0.00,,,0.00,meteohub,2013-02-12 06:52:00,
2013-02-12 00:57:00,28.2,23.4,-100.00,WNW,293,0.0,1.0,82,0.00,,,0.00,meteohub,2013-02-12 06:57:00,
2013-02-12 01:02:00,28.2,23.4,-100.00,WNW,293,0.0,1.0,82,0.00,,,0.00,meteohub,2013-02-12 07:02:00,
2013-02-12 01:07:00,28.0,23.2,-100.00,WNW,292,0.0,1.0,82,0.00,,,0.00,meteohub,2013-02-12 07:07:00,
2013-02-12 01:12:00,28.0,23.2,-100.00,WNW,292,0.0,1.0,82,0.00,,,0.00,meteohub,2013-02-12 07:12:00,
2013-02-12 01:17:00,28.0,23.2,-100.00,WNW,292,0.0,2.0,82,0.00,,,0.00,meteohub,2013-02-12 07:17:00,
2013-02-12 01:22:00,28.0,23.2,-100.00,WNW,292,0.0,2.0,82,0.00,,,0.00,meteohub,2013-02-12 07:22:00,
2013-02-12 01:27:00,27.9,23.0,-100.00,WNW,292,0.0,0.0,82,0.00,,,0.00,meteohub,2013-02-12 07:27:00,
2013-02-12 01:32:00,27.9,23.0,-100.00,WNW,292,0.0,0.0,82,0.00,,,0.00,meteohub,2013-02-12 07:32:00,
2013-02-12 01:37:00,27.7,22.8,-100.00,WNW,292,0.0,0.0,82,0.00,,,0.00,meteohub,2013-02-12 07:37:00,
2013-02-12 01:42:00,27.7,22.8,-100.00,WNW,292,0.0,0.0,82,0.00,,,0.00,meteohub,2013-02-12 07:42:00,
2013-02-12 01:47:00,27.3,22.8,-100.00,WNW,292,0.0,0.0,83,0.00,,,0.00,meteohub,2013-02-12 07:47:00,
2013-02-12 01:52:00,27.1,22.6,-100.00,WNW,292,0.0,1.0,83,0.00,,,0.00,meteohub,2013-02-12 07:52:00,
2013-02-12 01:57:00,27.1,22.6,-100.00,WNW,292,0.0,1.0,83,0.00,,,0.00,meteohub,2013-02-12 07:57:00,
2013-02-12 02:02:00,27.0,22.5,-100.00,WNW,292,0.0,1.0,83,0.00,,,0.00,meteohub,2013-02-12 08:02:00,
2013-02-12 02:07:00,26.8,22.3,-100.00,WNW,292,0.0,0.0,83,0.00,,,0.00,meteohub,2013-02-12 08:07:00,
2013-02-12 02:12:00,26.6,22.5,-100.00,WNW,292,0.0,0.0,84,0.00,,,0.00,meteohub,2013-02-12 08:12:00,
2013-02-12 02:17:00,26.4,22.3,-100.00,WNW,292,0.0,0.0,84,0.00,,,0.00,meteohub,2013-02-12 08:17:00,
2013-02-12 02:22:00,26.4,22.3,-100.00,WNW,292,0.0,1.0,84,0.00,,,0.00,meteohub,2013-02-12 08:22:00,
2013-02-12 02:27:00,26.8,22.8,-100.00,WNW,292,0.0,1.0,85,0.00,,,0.00,meteohub,2013-02-12 08:27:00,
2013-02-12 02:32:00,27.0,23.0,-100.00,WNW,292,0.0,1.0,85,0.00,,,0.00,meteohub,2013-02-12 08:32:00,
2013-02-12 02:37:00,27.0,23.0,-100.00,WNW,292,0.0,0.0,85,0.00,,,0.00,meteohub,2013-02-12 08:37:00,
2013-02-12 02:42:00,26.8,22.8,-100.00,WNW,292,0.0,0.0,85,0.00,,,0.00,meteohub,2013-02-12 08:42:00,
2013-02-12 02:47:00,26.6,22.6,-100.00,WNW,292,0.0,1.0,85,0.00,,,0.00,meteohub,2013-02-12 08:47:00,
2013-02-12 02:53:00,26.6,22.6,-100.00,WNW,292,0.0,1.0,85,0.00,,,0.00,meteohub,2013-02-12 08:53:00,
2013-02-12 02:58:00,26.4,22.5,-100.00,WNW,292,0.0,1.0,85,0.00,,,0.00,meteohub,2013-02-12 08:58:00,
2013-02-12 03:03:00,26.4,22.5,-100.00,WNW,292,0.0,1.0,85,0.00,,,0.00,meteohub,2013-02-12 09:03:00,
2013-02-12 03:08:00,26.4,22.5,-100.00,WNW,292,0.0,1.0,85,0.00,,,0.00,meteohub,2013-02-12 09:08:00,
2013-02-12 03:13:00,26.4,22.5,-100.00,WNW,292,0.0,1.0,85,0.00,,,0.00,meteohub,2013-02-12 09:13:00,
2013-02-12 03:18:00,26.4,22.5,-100.00,WNW,292,0.0,1.0,85,0.00,,,0.00,meteohub,2013-02-12 09:18:00,
2013-02-12 03:23:00,26.4,22.5,-100.00,WNW,292,0.0,1.0,85,0.00,,,0.00,meteohub,2013-02-12 09:23:00,
2013-02-12 03:28:00,26.4,22.5,-100.00,WNW,292,0.0,0.0,85,0.00,,,0.00,meteohub,2013-02-12 09:28:00,
2013-02-12 03:32:00,26.4,22.8,-100.00,WNW,292,0.0,1.0,86,0.00,,,0.00,meteohub,2013-02-12 09:32:00,
2013-02-12 03:37:00,26.4,22.8,-100.00,WNW,292,0.0,1.0,86,0.00,,,0.00,meteohub,2013-02-12 09:37:00,
2013-02-12 03:42:00,26.2,22.3,-100.00,WNW,291,0.0,1.0,85,0.00,,,0.00,meteohub,2013-02-12 09:42:00,
2013-02-12 03:47:00,26.1,22.1,-100.00,WNW,292,0.0,0.0,85,0.00,,,0.00,meteohub,2013-02-12 09:47:00,
2013-02-12 03:52:00,25.9,22.3,-100.00,WNW,291,0.0,0.0,86,0.00,,,0.00,meteohub,2013-02-12 09:52:00,
2013-02-12 03:57:00,25.9,22.3,-100.00,WNW,291,0.0,0.0,86,0.00,,,0.00,meteohub,2013-02-12 09:57:00,
2013-02-12 04:02:00,25.9,22.3,-100.00,WNW,292,0.0,0.0,86,0.00,,,0.00,meteohub,2013-02-12 10:02:00,
2013-02-12 04:07:00,26.1,22.5,-100.00,WNW,292,0.0,0.0,86,0.00,,,0.00,meteohub,2013-02-12 10:07:00,
2013-02-12 04:12:00,25.9,22.3,-100.00,WNW,291,0.0,0.0,86,0.00,,,0.00,meteohub,2013-02-12 10:12:00,
2013-02-12 04:17:00,25.7,22.1,-100.00,WNW,292,0.0,0.0,86,0.00,,,0.00,meteohub,2013-02-12 10:17:00,
2013-02-12 04:22:00,25.5,21.9,-100.00,WNW,291,0.0,0.0,86,0.00,,,0.00,meteohub,2013-02-12 10:22:00,
2013-02-12 04:27:00,25.5,21.9,-100.00,WNW,291,0.0,0.0,86,0.00,,,0.00,meteohub,2013-02-12 10:27:00,
2013-02-12 04:32:00,25.5,22.3,-100.00,WNW,292,0.0,2.0,87,0.00,,,0.00,meteohub,2013-02-12 10:32:00,
2013-02-12 04:37:00,25.9,22.5,-100.00,WNW,292,0.0,2.0,87,0.00,,,0.00,meteohub,2013-02-12 10:37:00,
2013-02-12 04:42:00,25.9,22.5,-100.00,WNW,291,0.0,2.0,87,0.00,,,0.00,meteohub,2013-02-12 10:42:00,
2013-02-12 04:47:00,25.9,22.5,-100.00,WNW,292,0.0,1.0,87,0.00,,,0.00,meteohub,2013-02-12 10:47:00,
2013-02-12 04:52:00,25.9,22.5,-100.00,WNW,292,0.0,1.0,87,0.00,,,0.00,meteohub,2013-02-12 10:52:00,
2013-02-12 04:57:00,25.7,22.5,-100.00,WNW,291,0.0,0.0,87,0.00,,,0.00,meteohub,2013-02-12 10:57:00,
2013-02-12 05:02:00,25.5,21.9,-100.00,WNW,292,0.0,0.0,86,0.00,,,0.00,meteohub,2013-02-12 11:02:00,
2013-02-12 05:07:00,25.3,21.7,-100.00,WNW,292,0.0,1.0,86,0.00,,,0.00,meteohub,2013-02-12 11:07:00,
2013-02-12 05:12:00,25.2,21.6,-100.00,WNW,292,0.0,1.0,86,0.00,,,0.00,meteohub,2013-02-12 11:12:00,
2013-02-12 05:17:00,25.2,21.9,-100.00,WNW,292,0.0,3.0,87,0.00,,,0.00,meteohub,2013-02-12 11:17:00,
2013-02-12 05:22:00,25.3,22.1,-100.00,WNW,292,0.0,3.0,87,0.00,,,0.00,meteohub,2013-02-12 11:22:00,
2013-02-12 05:27:00,25.3,22.1,-100.00,WNW,292,0.0,3.0,87,0.00,,,0.00,meteohub,2013-02-12 11:27:00,
2013-02-12 05:32:00,25.3,22.1,-100.00,WNW,292,0.0,0.0,87,0.00,,,0.00,meteohub,2013-02-12 11:32:00,
2013-02-12 05:37:00,25.2,21.9,-100.00,WNW,291,0.0,0.0,87,0.00,,,0.00,meteohub,2013-02-12 11:37:00,
2013-02-12 05:42:00,25.0,21.7,-100.00,WNW,292,0.0,0.0,87,0.00,,,0.00,meteohub,2013-02-12 11:42:00,
2013-02-12 05:47:00,24.8,21.6,-100.00,WNW,292,0.0,0.0,87,0.00,,,0.00,meteohub,2013-02-12 11:47:00,
2013-02-12 05:52:00,24.6,21.4,-100.00,WNW,292,0.0,0.0,87,0.00,,,0.00,meteohub,2013-02-12 11:52:00,
2013-02-12 05:57:00,24.4,21.2,-100.00,WNW,292,0.0,0.0,87,0.00,,,0.00,meteohub,2013-02-12 11:57:00,
2013-02-12 06:02:00,24.4,21.2,-100.00,WNW,292,0.0,0.0,87,0.00,,,0.00,meteohub,2013-02-12 12:02:00,
2013-02-12 06:07:00,24.3,21.0,-100.00,WNW,292,0.0,0.0,87,0.00,,,0.00,meteohub,2013-02-12 12:07:00,
2013-02-12 06:12:00,24.1,20.8,-100.00,WNW,291,0.0,0.0,87,0.00,,,0.00,meteohub,2013-02-12 12:12:00,
2013-02-12 06:17:00,23.7,20.5,-100.00,WNW,292,0.0,0.0,87,0.00,,,0.00,meteohub,2013-02-12 12:17:00,
2013-02-12 06:22:00,23.5,20.3,-100.00,WNW,291,0.0,0.0,87,0.00,,,0.00,meteohub,2013-02-12 12:22:00,
2013-02-12 06:27:00,23.4,20.3,-100.00,WNW,291,0.0,0.0,88,0.00,,,0.00,meteohub,2013-02-12 12:27:00,
2013-02-12 06:32:00,23.5,20.5,-100.00,WNW,292,0.0,0.0,88,0.00,,,0.00,meteohub,2013-02-12 12:32:00,
2013-02-12 06:37:00,24.3,21.2,-100.00,WNW,292,0.0,0.0,88,0.00,,,0.00,meteohub,2013-02-12 12:37:00,
2013-02-12 06:42:00,24.4,21.7,-100.00,WNW,291,0.0,0.0,89,0.00,,,0.00,meteohub,2013-02-12 12:42:00,
2013-02-12 06:47:00,24.4,21.4,-100.00,WNW,292,0.0,0.0,88,0.00,,,0.00,meteohub,2013-02-12 12:47:00,
2013-02-12 06:52:00,24.1,21.0,-100.00,WNW,291,0.0,0.0,88,0.00,,,0.00,meteohub,2013-02-12 12:52:00,
2013-02-12 06:57:00,23.5,20.5,-100.00,WNW,291,0.0,0.0,88,0.00,,,0.00,meteohub,2013-02-12 12:57:00,
2013-02-12 07:02:00,23.4,20.3,-100.00,WNW,292,0.0,0.0,88,0.00,,,0.00,meteohub,2013-02-12 13:02:00,
2013-02-12 07:07:00,23.2,20.1,-100.00,WNW,292,0.0,0.0,88,0.00,,,0.00,meteohub,2013-02-12 13:07:00,
2013-02-12 07:12:00,22.8,19.8,-100.00,WNW,291,0.0,0.0,88,0.00,,,0.00,meteohub,2013-02-12 13:12:00,
2013-02-12 07:17:00,22.6,19.6,-100.00,WNW,292,0.0,0.0,88,0.00,,,0.00,meteohub,2013-02-12 13:17:00,
2013-02-12 07:22:00,22.8,20.1,-100.00,WNW,292,0.0,0.0,89,0.00,,,0.00,meteohub,2013-02-12 13:22:00,
2013-02-12 07:27:00,23.4,20.7,-100.00,WNW,291,0.0,0.0,89,0.00,,,0.00,meteohub,2013-02-12 13:27:00,
2013-02-12 07:32:00,24.3,21.7,-100.00,WNW,292,0.0,1.0,90,0.00,,,0.00,meteohub,2013-02-12 13:32:00,
2013-02-12 07:37:00,25.0,22.5,-100.00,WNW,291,0.0,1.0,90,0.00,,,0.00,meteohub,2013-02-12 13:37:00,
2013-02-12 07:42:00,25.7,23.2,-100.00,WNW,291,0.0,3.0,90,0.00,,,0.00,meteohub,2013-02-12 13:42:00,
2013-02-12 07:47:00,26.4,23.9,-100.00,WNW,292,0.0,3.0,90,0.00,,,0.00,meteohub,2013-02-12 13:47:00,
2013-02-12 07:52:00,27.3,24.8,-100.00,WNW,291,0.0,3.0,90,0.00,,,0.00,meteohub,2013-02-12 13:52:00,
2013-02-12 07:57:00,28.0,25.5,-100.00,WNW,285,0.0,0.0,90,0.00,,,0.00,meteohub,2013-02-12 13:57:00,
2013-02-12 08:02:00,28.9,26.4,-100.00,WNW,285,0.0,3.0,90,0.00,,,0.00,meteohub,2013-02-12 14:02:00,
2013-02-12 08:07:00,29.7,26.8,-100.00,WNW,283,0.0,4.0,89,0.00,,,0.00,meteohub,2013-02-12 14:07:00,
2013-02-12 08:12:00,30.4,27.3,-100.00,WNW,284,0.0,4.0,88,0.00,,,0.00,meteohub,2013-02-12 14:12:00,
2013-02-12 08:17:00,31.1,27.7,-100.00,West,278,4.0,4.0,87,0.00,,,0.00,meteohub,2013-02-12 14:17:00,
2013-02-12 08:22:00,31.6,27.7,-100.00,WSW,252,2.0,6.0,85,0.00,,,0.00,meteohub,2013-02-12 14:22:00,
2013-02-12 08:27:00,32.2,27.7,-100.00,WSW,252,0.0,6.0,83,0.00,,,0.00,meteohub,2013-02-12 14:27:00,
2013-02-12 08:33:00,32.7,27.9,-100.00,West,278,3.0,6.0,82,0.00,,,0.00,meteohub,2013-02-12 14:33:00,
2013-02-12 08:38:00,33.3,28.0,-100.00,West,276,0.0,5.0,81,0.00,,,0.00,meteohub,2013-02-12 14:38:00,
2013-02-12 08:43:00,33.8,28.2,-100.00,West,277,3.0,5.0,80,0.00,,,0.00,meteohub,2013-02-12 14:43:00,
2013-02-12 08:48:00,34.2,28.0,-100.00,West,281,3.0,5.0,78,0.00,,,0.00,meteohub,2013-02-12 14:48:00,
2013-02-12 08:53:00,34.2,27.7,-100.00,WNW,288,0.0,6.0,77,0.00,,,0.00,meteohub,2013-02-12 14:53:00,
2013-02-12 08:58:00,34.0,27.1,-100.00,NW,305,1.0,10.0,76,0.00,,,0.00,meteohub,2013-02-12 14:58:00,
2013-02-12 09:03:00,34.2,28.0,-100.00,WNW,302,5.0,10.0,78,0.00,,,0.00,meteohub,2013-02-12 15:03:00,
2013-02-12 09:08:00,34.3,27.9,-100.00,West,275,1.0,10.0,77,0.00,,,0.00,meteohub,2013-02-12 15:08:00,
2013-02-12 09:13:00,34.7,27.9,-100.00,West,275,0.0,9.0,76,0.00,,,0.00,meteohub,2013-02-12 15:13:00,
2013-02-12 09:18:00,34.3,27.0,-100.00,WNW,294,5.0,9.0,74,0.00,,,0.00,meteohub,2013-02-12 15:18:00,
2013-02-12 09:23:00,33.3,26.2,-100.00,WNW,294,4.0,9.0,75,0.00,,,0.00,meteohub,2013-02-12 15:23:00,
2013-02-12 09:28:00,32.5,25.9,-100.00,WNW,300,0.0,9.0,76,0.00,,,0.00,meteohub,2013-02-12 15:28:00,
2013-02-12 09:33:00,32.4,26.2,-100.00,WNW,300,1.0,9.0,78,0.00,,,0.00,meteohub,2013-02-12 15:33:00,
2013-02-12 09:38:00,32.2,26.1,-100.00,WNW,303,0.0,9.0,78,0.00,,,0.00,meteohub,2013-02-12 15:38:00,
2013-02-12 09:43:00,31.8,26.1,-100.00,SSE,147,0.0,6.0,79,0.00,,,0.00,meteohub,2013-02-12 15:43:00,
2013-02-12 09:48:00,31.8,26.4,-100.00,NNW,331,0.0,6.0,80,0.00,,,0.00,meteohub,2013-02-12 15:48:00,
2013-02-12 09:53:00,32.2,26.8,-100.00,NNW,341,3.0,6.0,80,0.00,,,0.00,meteohub,2013-02-12 15:53:00,
2013-02-12 09:58:00,33.1,27.5,-100.00,NNW,341,0.0,5.0,80,0.00,,,0.00,meteohub,2013-02-12 15:58:00,
2013-02-12 10:03:00,34.2,28.0,-100.00,NNW,340,0.0,3.0,78,0.00,,,0.00,meteohub,2013-02-12 16:03:00,
2013-02-12 10:08:00,35.1,28.6,-100.00,NNW,340,0.0,3.0,77,0.00,,,0.00,meteohub,2013-02-12 16:08:00,
2013-02-12 10:13:00,36.0,28.8,-100.00,NNW,340,0.0,0.0,75,0.00,,,0.00,meteohub,2013-02-12 16:13:00,
2013-02-12 10:18:00,36.9,28.9,-100.00,NNW,338,0.0,0.0,73,0.00,,,0.00,meteohub,2013-02-12 16:18:00,
2013-02-12 10:23:00,37.4,28.9,-100.00,NW,317,0.0,0.0,71,0.00,,,0.00,meteohub,2013-02-12 16:23:00,
2013-02-12 10:28:00,37.8,28.6,-100.00,NW,317,0.0,3.0,69,0.00,,,0.00,meteohub,2013-02-12 16:28:00,
2013-02-12 10:33:00,38.1,28.6,-100.00,NW,316,0.0,3.0,68,0.00,,,0.00,meteohub,2013-02-12 16:33:00,
2013-02-12 10:38:00,37.9,27.1,-100.00,NW,316,0.0,3.0,65,0.00,,,0.00,meteohub,2013-02-12 16:38:00,
2013-02-12 10:43:00,37.8,27.9,-100.00,NW,315,0.0,1.0,67,0.00,,,0.00,meteohub,2013-02-12 16:43:00,
2013-02-12 10:48:00,38.3,28.2,-100.00,NW,315,0.0,1.0,67,0.00,,,0.00,meteohub,2013-02-12 16:48:00,
2013-02-12 10:53:00,38.7,28.2,-100.00,NW,315,0.0,0.0,66,0.00,,,0.00,meteohub,2013-02-12 16:53:00,
2013-02-12 10:58:00,37.9,27.7,-100.00,NW,315,0.0,0.0,66,0.00,,,0.00,meteohub,2013-02-12 16:58:00,
2013-02-12 11:03:00,37.8,27.9,-100.00,West,263,0.0,0.0,67,0.00,,,0.00,meteohub,2013-02-12 17:03:00,
2013-02-12 11:08:00,37.9,27.7,-100.00,West,263,0.0,3.0,66,0.00,,,0.00,meteohub,2013-02-12 17:08:00,
2013-02-12 11:13:00,37.8,27.5,-100.00,SSW,202,0.0,3.0,66,0.00,,,0.00,meteohub,2013-02-12 17:13:00,
2013-02-12 11:18:00,37.6,27.3,-100.00,SSW,202,0.0,3.0,66,0.00,,,0.00,meteohub,2013-02-12 17:18:00,
2013-02-12 11:24:00,37.6,27.7,-100.00,South,188,0.0,3.0,67,0.00,,,0.00,meteohub,2013-02-12 17:24:00,
2013-02-12 11:29:00,37.2,27.3,-100.00,South,189,0.0,6.0,67,0.00,,,0.00,meteohub,2013-02-12 17:29:00,
2013-02-12 11:34:00,37.6,27.7,-100.00,South,189,2.0,6.0,67,0.00,,,0.00,meteohub,2013-02-12 17:34:00,
2013-02-12 11:39:00,37.8,27.5,-100.00,South,189,0.0,6.0,66,0.00,,,0.00,meteohub,2013-02-12 17:39:00,
2013-02-12 11:44:00,38.3,28.2,-100.00,South,189,0.0,5.0,67,0.00,,,0.00,meteohub,2013-02-12 17:44:00,
2013-02-12 11:49:00,38.8,28.4,-100.00,South,190,0.0,5.0,66,0.00,,,0.00,meteohub,2013-02-12 17:49:00,
2013-02-12 11:54:00,39.7,28.6,-100.00,South,190,0.0,5.0,64,0.00,,,0.00,meteohub,2013-02-12 17:54:00,
2013-02-12 11:59:00,39.6,28.0,-100.00,South,190,0.0,5.0,63,0.00,,,0.00,meteohub,2013-02-12 17:59:00,
2013-02-12 12:04:00,39.6,28.0,-100.00,South,190,0.0,5.0,63,0.00,,,0.00,meteohub,2013-02-12 18:04:00,
2013-02-12 12:09:00,39.6,28.0,-100.00,South,190,0.0,5.0,63,0.00,,,0.00,meteohub,2013-02-12 18:09:00,
2013-02-12 12:14:00,39.7,28.6,-100.00,South,190,0.0,5.0,64,0.00,,,0.00,meteohub,2013-02-12 18:14:00,
2013-02-12 12:19:00,39.9,28.0,-100.00,SSW,210,0.0,5.0,62,0.00,,,0.00,meteohub,2013-02-12 18:19:00,
2013-02-12 12:24:00,40.6,27.9,-100.00,SSW,211,0.0,5.0,60,0.00,,,0.00,meteohub,2013-02-12 18:24:00,
2013-02-12 12:29:00,40.6,27.9,-100.00,SSW,211,0.0,5.0,60,0.00,,,0.00,meteohub,2013-02-12 18:29:00,
2013-02-12 12:34:00,40.6,27.9,-100.00,SW,221,0.0,5.0,60,0.00,,,0.00,meteohub,2013-02-12 18:34:00,
2013-02-12 12:39:00,41.2,27.5,-100.00,SW,221,0.0,4.0,58,0.00,,,0.00,meteohub,2013-02-12 18:39:00,
2013-02-12 12:44:00,41.5,27.9,-100.00,SW,234,0.0,4.0,58,0.00,,,0.00,meteohub,2013-02-12 18:44:00,
2013-02-12 12:49:00,42.3,27.7,-100.00,West,278,0.0,4.0,56,0.00,,,0.00,meteohub,2013-02-12 18:49:00,
2013-02-12 12:54:00,42.6,28.0,-100.00,West,278,0.0,4.0,56,0.00,,,0.00,meteohub,2013-02-12 18:54:00,
2013-02-12 12:59:00,42.6,28.0,-100.00,West,277,2.0,3.0,56,0.00,,,0.00,meteohub,2013-02-12 18:59:00,
2013-02-12 13:04:00,43.2,28.0,-100.00,West,269,0.0,3.0,55,0.00,,,0.00,meteohub,2013-02-12 19:04:00,
2013-02-12 13:09:00,43.5,28.0,-100.00,West,269,0.0,3.0,54,0.00,,,0.00,meteohub,2013-02-12 19:09:00,
2013-02-12 13:14:00,42.8,27.3,-100.00,West,265,0.0,3.0,54,0.00,,,0.00,meteohub,2013-02-12 19:14:00,
2013-02-12 13:19:00,43.5,28.0,-100.00,WSW,250,0.0,1.0,54,0.00,,,0.00,meteohub,2013-02-12 19:19:00,
2013-02-12 13:24:00,44.1,27.5,-100.00,WSW,250,0.0,4.0,52,0.00,,,0.00,meteohub,2013-02-12 19:24:00,
2013-02-12 13:29:00,44.6,27.5,-100.00,WSW,250,0.0,4.0,51,0.00,,,0.00,meteohub,2013-02-12 19:29:00,
2013-02-12 13:34:00,45.1,27.7,-100.00,WSW,250,0.0,4.0,50,0.00,,,0.00,meteohub,2013-02-12 19:34:00,
2013-02-12 13:39:00,45.3,27.3,-100.00,WSW,252,0.0,4.0,49,0.00,,,0.00,meteohub,2013-02-12 19:39:00,
2013-02-12 13:44:00,45.1,27.1,-100.00,WNW,295,0.0,4.0,49,0.00,,,0.00,meteohub,2013-02-12 19:44:00,
2013-02-12 13:49:00,44.8,26.8,-100.00,WNW,294,0.0,4.0,49,0.00,,,0.00,meteohub,2013-02-12 19:49:00,
2013-02-12 13:54:00,44.4,26.4,-100.00,West,269,3.0,6.0,49,0.00,,,0.00,meteohub,2013-02-12 19:54:00,
2013-02-12 13:59:00,44.1,26.6,-100.00,West,269,0.0,6.0,50,0.00,,,0.00,meteohub,2013-02-12 19:59:00,
2013-02-12 14:04:00,43.9,26.4,-100.00,West,269,0.0,3.0,50,0.00,,,0.00,meteohub,2013-02-12 20:04:00,
2013-02-12 14:09:00,43.5,26.6,-100.00,West,268,0.0,4.0,51,0.00,,,0.00,meteohub,2013-02-12 20:09:00,
2013-02-12 14:14:00,43.5,27.1,-100.00,West,264,0.0,4.0,52,0.00,,,0.00,meteohub,2013-02-12 20:14:00,
2013-02-12 14:19:00,43.5,26.6,-100.00,West,264,0.0,1.0,51,0.00,,,0.00,meteohub,2013-02-12 20:19:00,
2013-02-12 14:24:00,43.7,27.1,-100.00,West,265,0.0,1.0,52,0.00,,,0.00,meteohub,2013-02-12 20:24:00,
2013-02-12 14:29:00,43.7,26.8,-100.00,West,265,0.0,3.0,51,0.00,,,0.00,meteohub,2013-02-12 20:29:00,
2013-02-12 14:34:00,43.7,26.8,-100.00,West,265,0.0,3.0,51,0.00,,,0.00,meteohub,2013-02-12 20:34:00,
2013-02-12 14:39:00,43.5,27.1,-100.00,West,259,0.0,3.0,52,0.00,,,0.00,meteohub,2013-02-12 20:39:00,
2013-02-12 14:44:00,43.7,27.1,-100.00,West,259,0.0,3.0,52,0.00,,,0.00,meteohub,2013-02-12 20:44:00,
2013-02-12 14:49:00,43.3,26.4,-100.00,SW,225,0.0,3.0,51,0.00,,,0.00,meteohub,2013-02-12 20:49:00,
2013-02-12 14:54:00,42.6,26.2,-100.00,SW,225,0.0,4.0,52,0.00,,,0.00,meteohub,2013-02-12 20:54:00,
2013-02-12 14:59:00,42.1,26.2,-100.00,SW,223,0.0,4.0,53,0.00,,,0.00,meteohub,2013-02-12 20:59:00,
2013-02-12 15:04:00,41.9,26.4,-100.00,SW,223,0.0,4.0,54,0.00,,,0.00,meteohub,2013-02-12 21:04:00,
2013-02-12 15:09:00,42.1,26.6,-100.00,SW,223,0.0,1.0,54,0.00,,,0.00,meteohub,2013-02-12 21:09:00,
2013-02-12 15:14:00,42.3,26.4,-100.00,SW,222,0.0,4.0,53,0.00,,,0.00,meteohub,2013-02-12 21:14:00,
2013-02-12 15:19:00,42.3,26.8,-100.00,SW,223,1.0,4.0,54,0.00,,,0.00,meteohub,2013-02-12 21:19:00,
2013-02-12 15:24:00,42.1,27.1,-100.00,SW,222,0.0,4.0,55,0.00,,,0.00,meteohub,2013-02-12 21:24:00,
2013-02-12 15:29:00,41.7,27.1,-100.00,SW,222,0.0,1.0,56,0.00,,,0.00,meteohub,2013-02-12 21:29:00,
2013-02-12 15:34:00,41.5,27.0,-100.00,SW,223,0.0,1.0,56,0.00,,,0.00,meteohub,2013-02-12 21:34:00,
2013-02-12 15:39:00,41.4,27.3,-100.00,SW,221,0.0,1.0,57,0.00,,,0.00,meteohub,2013-02-12 21:39:00,
2013-02-12 15:44:00,41.4,27.7,-100.00,SW,221,0.0,3.0,58,0.00,,,0.00,meteohub,2013-02-12 21:44:00,
2013-02-12 15:49:00,41.4,27.3,-100.00,SW,221,0.0,3.0,57,0.00,,,0.00,meteohub,2013-02-12 21:49:00,
2013-02-12 15:54:00,41.5,27.5,-100.00,SW,221,0.0,3.0,57,0.00,,,0.00,meteohub,2013-02-12 21:54:00,
2013-02-12 15:59:00,41.5,27.5,-100.00,SW,221,0.0,1.0,57,0.00,,,0.00,meteohub,2013-02-12 21:59:00,
2013-02-12 16:04:00,41.2,26.6,-100.00,SW,221,0.0,1.0,56,0.00,,,0.00,meteohub,2013-02-12 22:04:00,
2013-02-12 16:09:00,41.2,27.1,-100.00,SW,221,0.0,2.0,57,0.00,,,0.00,meteohub,2013-02-12 22:09:00,
2013-02-12 16:14:00,41.0,27.3,-100.00,SW,221,0.0,2.0,58,0.00,,,0.00,meteohub,2013-02-12 22:14:00,
2013-02-12 16:19:00,40.6,27.0,-100.00,SW,221,0.0,2.0,58,0.00,,,0.00,meteohub,2013-02-12 22:19:00,
2013-02-12 16:24:00,40.6,27.5,-100.00,SW,221,0.0,3.0,59,0.00,,,0.00,meteohub,2013-02-12 22:24:00,
2013-02-12 16:29:00,40.5,27.7,-100.00,SSW,206,0.0,3.0,60,0.00,,,0.00,meteohub,2013-02-12 22:29:00,
2013-02-12 16:34:00,40.3,27.9,-100.00,SSW,206,0.0,3.0,61,0.00,,,0.00,meteohub,2013-02-12 22:34:00,
2013-02-12 16:39:00,40.1,27.7,-100.00,SSW,206,0.0,1.0,61,0.00,,,0.00,meteohub,2013-02-12 22:39:00,
2013-02-12 16:44:00,39.7,27.3,-100.00,SSW,200,0.0,1.0,61,0.00,,,0.00,meteohub,2013-02-12 22:44:00,
2013-02-12 16:49:00,39.7,27.9,-100.00,SSW,192,0.0,1.0,62,0.00,,,0.00,meteohub,2013-02-12 22:49:00,
2013-02-12 16:54:00,39.6,28.0,-100.00,SSW,192,0.0,3.0,63,0.00,,,0.00,meteohub,2013-02-12 22:54:00,
2013-02-12 16:59:00,39.4,27.9,-100.00,SSW,192,0.0,3.0,63,0.00,,,0.00,meteohub,2013-02-12 22:59:00,
2013-02-12 17:04:00,39.4,28.2,-100.00,SSW,192,0.0,3.0,64,0.00,,,0.00,meteohub,2013-02-12 23:04:00,
2013-02-12 17:09:00,39.0,27.9,-100.00,SSW,192,0.0,0.0,64,0.00,,,0.00,meteohub,2013-02-12 23:09:00,
2013-02-12 17:14:00,38.8,27.7,-100.00,SSW,192,0.0,0.0,64,0.00,,,0.00,meteohub,2013-02-12 23:14:00,
2013-02-12 17:19:00,38.7,27.5,-100.00,SSW,192,0.0,0.0,64,0.00,,,0.00,meteohub,2013-02-12 23:19:00,
2013-02-12 17:24:00,38.7,27.9,-100.00,SSW,192,0.0,0.0,65,0.00,,,0.00,meteohub,2013-02-12 23:24:00,
2013-02-12 17:29:00,38.3,27.5,-100.00,SSW,192,0.0,0.0,65,0.00,,,0.00,meteohub,2013-02-12 23:29:00,
2013-02-12 17:35:00,38.1,27.9,-100.00,SSW,192,0.0,0.0,66,0.00,,,0.00,meteohub,2013-02-12 23:35:00,
2013-02-12 17:40:00,37.9,27.7,-100.00,SSW,192,0.0,0.0,66,0.00,,,0.00,meteohub,2013-02-12 23:40:00,
2013-02-12 17:45:00,37.8,27.5,-100.00,SSW,192,0.0,0.0,66,0.00,,,0.00,meteohub,2013-02-12 23:45:00,
2013-02-12 17:50:00,37.6,27.3,-100.00,SSW,192,0.0,0.0,66,0.00,,,0.00,meteohub,2013-02-12 23:50:00,
2013-02-12 17:55:00,37.2,27.0,-100.00,SSW,192,0.0,0.0,66,0.00,,,0.00,meteohub,2013-02-12 23:55:00,
2013-02-12 18:00:00,37.2,27.3,-100.00,SSW,192,0.0,0.0,67,0.00,,,0.00,meteohub,2013-02-13 00:00:00,
2013-02-12 18:05:00,37.0,27.1,-100.00,SSW,192,0.0,0.0,67,0.00,,,0.00,meteohub,2013-02-13 00:05:00,
2013-02-12 18:10:00,36.9,27.3,-100.00,SSW,192,0.0,0.0,68,0.00,,,0.00,meteohub,2013-02-13 00:10:00,
2013-02-12 18:15:00,36.7,27.1,-100.00,SSW,192,0.0,0.0,68,0.00,,,0.00,meteohub,2013-02-13 00:15:00,
2013-02-12 18:20:00,36.7,27.5,-100.00,SSW,192,0.0,0.0,69,0.00,,,0.00,meteohub,2013-02-13 00:20:00,
2013-02-12 18:25:00,36.7,27.5,-100.00,SSW,192,0.0,0.0,69,0.00,,,0.00,meteohub,2013-02-13 00:25:00,
2013-02-12 18:30:00,36.5,27.0,-100.00,SSW,192,0.0,0.0,68,0.00,,,0.00,meteohub,2013-02-13 00:30:00,
2013-02-12 18:35:00,36.3,27.1,-100.00,SSW,192,0.0,0.0,69,0.00,,,0.00,meteohub,2013-02-13 00:35:00,
2013-02-12 18:40:00,36.1,27.0,-100.00,SSW,192,0.0,0.0,69,0.00,,,0.00,meteohub,2013-02-13 00:40:00,
2013-02-12 18:45:00,36.1,27.0,-100.00,SSW,192,0.0,0.0,69,0.00,,,0.00,meteohub,2013-02-13 00:45:00,
2013-02-12 18:50:00,36.0,27.1,-100.00,SSW,192,0.0,0.0,70,0.00,,,0.00,meteohub,2013-02-13 00:50:00,
2013-02-12 18:55:00,35.4,26.6,-100.00,SSW,192,0.0,0.0,70,0.00,,,0.00,meteohub,2013-02-13 00:55:00,
2013-02-12 19:00:00,35.2,26.8,-100.00,SSW,192,0.0,1.0,71,0.00,,,0.00,meteohub,2013-02-13 01:00:00,
2013-02-12 19:05:00,35.2,27.1,-100.00,SSW,192,0.0,1.0,72,0.00,,,0.00,meteohub,2013-02-13 01:05:00,
2013-02-12 19:10:00,35.4,27.0,-100.00,SSW,192,0.0,1.0,71,0.00,,,0.00,meteohub,2013-02-13 01:10:00,
2013-02-12 19:15:00,35.4,27.0,-100.00,SSW,192,0.0,0.0,71,0.00,,,0.00,meteohub,2013-02-13 01:15:00,
2013-02-12 19:20:00,35.2,26.8,-100.00,SSW,192,0.0,0.0,71,0.00,,,0.00,meteohub,2013-02-13 01:20:00,
2013-02-12 19:25:00,35.1,26.6,-100.00,SSW,192,0.0,0.0,71,0.00,,,0.00,meteohub,2013-02-13 01:25:00,
2013-02-12 19:30:00,34.9,26.8,-100.00,SSW,192,0.0,0.0,72,0.00,,,0.00,meteohub,2013-02-13 01:30:00,
2013-02-12 19:35:00,34.3,26.2,-100.00,SSW,192,0.0,0.0,72,0.00,,,0.00,meteohub,2013-02-13 01:35:00,
2013-02-12 19:40:00,34.2,26.4,-100.00,SSW,192,0.0,0.0,73,0.00,,,0.00,meteohub,2013-02-13 01:40:00,
2013-02-12 19:45:00,34.0,26.6,-100.00,SSW,192,0.0,0.0,74,0.00,,,0.00,meteohub,2013-02-13 01:45:00,
2013-02-12 19:50:00,33.6,26.2,-100.00,SSW,192,0.0,0.0,74,0.00,,,0.00,meteohub,2013-02-13 01:50:00,
2013-02-12 19:55:00,33.4,26.1,-100.00,SSW,192,0.0,0.0,74,0.00,,,0.00,meteohub,2013-02-13 01:55:00,
2013-02-12 20:00:00,33.4,26.4,-100.00,SSW,192,0.0,0.0,75,0.00,,,0.00,meteohub,2013-02-13 02:00:00,
2013-02-12 20:05:00,33.4,26.8,-100.00,SSW,192,0.0,0.0,76,0.00,,,0.00,meteohub,2013-02-13 02:05:00,
2013-02-12 20:10:00,33.3,26.6,-100.00,SSW,192,0.0,0.0,76,0.00,,,0.00,meteohub,2013-02-13 02:10:00,
2013-02-12 20:15:00,33.1,26.4,-100.00,SSW,192,0.0,0.0,76,0.00,,,0.00,meteohub,2013-02-13 02:15:00,
2013-02-12 20:20:00,33.1,26.6,-100.00,SSW,192,0.0,0.0,77,0.00,,,0.00,meteohub,2013-02-13 02:20:00,
2013-02-12 20:25:00,33.1,26.6,-100.00,SSW,192,0.0,0.0,77,0.00,,,0.00,meteohub,2013-02-13 02:25:00,
2013-02-12 20:30:00,32.7,26.2,-100.00,SSW,192,0.0,0.0,77,0.00,,,0.00,meteohub,2013-02-13 02:30:00,
2013-02-12 20:35:00,32.5,26.4,-100.00,SSW,192,0.0,0.0,78,0.00,,,0.00,meteohub,2013-02-13 02:35:00,
2013-02-12 20:40:00,32.7,26.6,-100.00,SSW,192,0.0,0.0,78,0.00,,,0.00,meteohub,2013-02-13 02:40:00,
2013-02-12 20:45:00,32.5,26.8,-100.00,SSW,192,0.0,0.0,79,0.00,,,0.00,meteohub,2013-02-13 02:45:00,
2013-02-12 20:50:00,32.5,26.8,-100.00,SSW,192,0.0,0.0,79,0.00,,,0.00,meteohub,2013-02-13 02:50:00,
2013-02-12 20:58:00,32.5,26.8,-100.00,SSW,192,0.0,0.0,79,0.00,,,0.00,meteohub,2013-02-13 02:58:00,
2013-02-12 21:03:00,32.4,26.6,-100.00,SSW,192,0.0,0.0,79,0.00,,,0.00,meteohub,2013-02-13 03:03:00,
2013-02-12 21:08:00,32.4,27.0,-100.00,SSW,192,0.0,0.0,80,0.00,,,0.00,meteohub,2013-02-13 03:08:00,
2013-02-12 21:13:00,32.0,26.6,-100.00,SSW,192,0.0,0.0,80,0.00,,,0.00,meteohub,2013-02-13 03:13:00,
2013-02-12 21:18:00,31.8,26.4,-100.00,SSW,192,0.0,0.0,80,0.00,,,0.00,meteohub,2013-02-13 03:18:00,
2013-02-12 21:23:00,31.5,26.2,-100.00,SSW,192,0.0,0.0,81,0.00,,,0.00,meteohub,2013-02-13 03:23:00,
2013-02-12 21:28:00,31.6,26.8,-100.00,SSW,192,0.0,0.0,82,0.00,,,0.00,meteohub,2013-02-13 03:28:00,
2013-02-12 21:33:00,31.5,26.2,-100.00,SSW,192,0.0,0.0,81,0.00,,,0.00,meteohub,2013-02-13 03:33:00,
2013-02-12 21:38:00,31.1,25.9,-100.00,SSW,192,0.0,0.0,81,0.00,,,0.00,meteohub,2013-02-13 03:38:00,
2013-02-12 21:43:00,30.9,26.1,-100.00,SSW,192,0.0,0.0,82,0.00,,,0.00,meteohub,2013-02-13 03:43:00,
2013-02-12 21:48:00,31.1,26.6,-100.00,SSW,192,0.0,0.0,83,0.00,,,0.00,meteohub,2013-02-13 03:48:00,
2013-02-12 21:53:00,31.3,26.8,-100.00,SSW,192,0.0,0.0,83,0.00,,,0.00,meteohub,2013-02-13 03:53:00,
2013-02-12 21:58:00,31.3,26.8,-100.00,SSW,192,0.0,1.0,83,0.00,,,0.00,meteohub,2013-02-13 03:58:00,
2013-02-12 22:03:00,31.3,26.8,-100.00,SSW,192,0.0,1.0,83,0.00,,,0.00,meteohub,2013-02-13 04:03:00,
2013-02-12 22:08:00,31.1,26.6,-100.00,SSW,192,1.0,0.0,83,0.00,,,0.00,meteohub,2013-02-13 04:08:00,
2013-02-12 22:13:00,30.9,26.4,-100.00,SSW,192,1.0,2.0,83,0.00,,,0.00,meteohub,2013-02-13 04:13:00,
2013-02-12 22:18:00,31.3,26.8,-100.00,SSW,192,0.0,3.0,83,0.00,,,0.00,meteohub,2013-02-13 04:18:00,
2013-02-12 22:23:00,31.5,26.6,-100.00,SSW,192,0.0,3.0,82,0.00,,,0.00,meteohub,2013-02-13 04:23:00,
2013-02-12 22:28:00,31.8,27.3,-100.00,SSW,192,0.0,3.0,83,0.00,,,0.00,meteohub,2013-02-13 04:28:00,
2013-02-12 22:34:00,32.2,27.3,-100.00,SSW,192,0.0,1.0,82,0.00,,,0.00,meteohub,2013-02-13 04:34:00,
2013-02-12 22:39:00,32.2,27.3,-100.00,SSW,192,0.0,1.0,82,0.00,,,0.00,meteohub,2013-02-13 04:39:00,
2013-02-12 22:44:00,31.8,26.6,-100.00,SSW,192,0.0,1.0,81,0.00,,,0.00,meteohub,2013-02-13 04:44:00,
2013-02-12 22:49:00,31.6,26.4,-100.00,SSW,192,2.0,2.0,81,0.00,,,0.00,meteohub,2013-02-13 04:49:00,
2013-02-12 22:54:00,31.6,26.4,-100.00,SSW,192,0.0,2.0,81,0.00,,,0.00,meteohub,2013-02-13 04:54:00,
2013-02-12 22:59:00,31.8,26.6,-100.00,SSW,192,0.0,2.0,81,0.00,,,0.00,meteohub,2013-02-13 04:59:00,
2013-02-12 23:00:00,31.8,26.6,-100.00,SSW,192,0.0,2.0,81,0.00,,,0.00,meteohub,2013-02-13 05:00:00,
2013-02-12 23:05:00,31.6,26.2,-100.00,SSW,192,0.0,2.0,80,0.00,,,0.00,meteohub,2013-02-13 05:05:00,
2013-02-12 23:10:00,31.6,26.2,-100.00,SSW,196,1.0,2.0,80,0.00,,,0.00,meteohub,2013-02-13 05:10:00,
2013-02-12 23:15:00,31.6,26.2,-100.00,SSW,196,0.0,3.0,80,0.00,,,0.00,meteohub,2013-02-13 05:15:00,
2013-02-12 23:20:00,31.6,26.2,-100.00,SSW,196,0.0,3.0,80,0.00,,,0.00,meteohub,2013-02-13 05:20:00,
2013-02-12 23:25:00,31.6,25.9,-100.00,SSW,207,0.0,3.0,79,0.00,,,0.00,meteohub,2013-02-13 05:25:00,
2013-02-12 23:30:00,31.8,26.1,-100.00,West,271,0.0,6.0,79,0.00,,,0.00,meteohub,2013-02-13 05:30:00,
2013-02-12 23:35:00,32.0,26.2,-100.00,West,271,2.0,6.0,79,0.00,,,0.00,meteohub,2013-02-13 05:35:00,
2013-02-12 23:40:00,32.2,26.4,-100.00,West,271,0.0,6.0,79,0.00,,,0.00,meteohub,2013-02-13 05:40:00,
2013-02-12 23:45:00,32.2,26.4,-100.00,West,271,0.0,5.0,79,0.00,,,0.00,meteohub,2013-02-13 05:45:00,
2013-02-12 23:50:00,32.2,26.4,-100.00,West,270,0.0,5.0,79,0.00,,,0.00,meteohub,2013-02-13 05:50:00,
2013-02-12 23:55:00,32.2,26.4,-100.00,West,271,0.0,4.0,79,0.00,,,0.00,meteohub,2013-02-13 05:55:00,